Bartley, Nebraska
Current Conditions -  °F | °C
As of 12:53 PM on Friday 24 Oct 2014 (Local Time) from KMCK Reporting Station
Clear Clear  
Wind Chill: 75°   Ceiling: Unl
Heat Index: 75°   Visibility: 10mi
Dew Point: 42°   Wind: 6mph
Humidity: 31%   Direction: 270°W
Pressure: 30.03"   Gusts: NA
Location:  40.25°N, 100.31°W
Report Text: KMCK 241753Z AUTO 27005KT 10SM CLR 24/06 A3003 RMK AO2 SLP155 T02390056 10239 20089 50004
Loading
Personal Weather Stations






























Interactive Weather Map
Tropical Storm Tracking
New forecast layout! Learn more

10-Day Weather Forecast

Advertisements
Track Severe Weather on mobile